Lewistown Municipal Airport
KLWT : now visible

Airfield :











YOU CAN JOIN US ON...

 
LOGIN :

Register | Disclaimer

   EN    FR    IT 

 









Legend :    VFR   Marginal VFR   IFR   Intensive IFR   Very Intensive IFR
Visi :
Ceiling :
>= 8 km
>= 3000ft
5 to 8 km
1000 to 3000 ft
1500m to 5 km
500 to 1000 ft
800 to 1500m
200 to 500 ft
< 800m
< 200 ft
Symbols :   Thunderstorms  Fog  Heavy snow  Heavy precipitations  Wind > 20 kt






- Airport Elevation : 4170 ft
- IATA code : LWT


KLWT - Lewistown Municipal

CURRENT METAR :
  • 172054Z AUTO 26006KT 10SM CLR M03/M08 A2998 RMK AO2 SLP196 T10281078 58001

EXPIRED METARs :
  • 171954Z AUTO 23006KT 10SM FEW050 M03/M08 A2998 RMK AO2 SLP193 T10331078
  • 171854Z AUTO 24008KT 10SM CLR M04/M09 A2999 RMK AO2 SLP195 T10391089

TAF KLWT
Valid from the 17 at 18:00 until the 18 at 18:00 UTC


171739Z 1718/1818 VRB06KT P6SM FEW150 SCT250
TEMPO 1721/1801 6SM -SHSN BKN025
FM180100 VRB05KT P6SM VCSH FEW025 SCT060
FM181200 VRB05KT P6SM SCT015 OVC030
PROB30 1812/1815 3SM -SN BR BKN015 OVC025
FM181500 VRB05KT 3SM -SN BR BKN015 OVC025



MET'MAP, your aeronautical weather chart ! - Copyright ORBIFLY December 2007 - Disclaimer

ORBIFLY MET'MAP TEAM :

Programming & Development : Alexandra Zaïnal
Concept & original design : Baudouin d'Aumeries
Assistance for programming : Marc-Olivier Méhu
Technical & hardware support : Manuel Goepfert

Contact : metmap@orbifly.com




SOURCES & CREDITS :

   NOAA       Earth
Advisory